sensor_id;sensor_type;location;lat;lon;timestamp;pressure;altitude;pressure_sealevel;temperature;humidity
47082;BME280;33066;49.296;14.470;2022-09-09T00:00:14;96776.79;;;20.63;38.54
47082;BME280;33066;49.296;14.470;2022-09-09T00:02:36;96775.28;;;20.65;38.50
47082;BME280;33066;49.296;14.470;2022-09-09T00:05:09;96775.63;;;20.62;38.65
47082;BME280;33066;49.296;14.470;2022-09-09T00:07:34;96772.28;;;20.58;38.55
47082;BME280;33066;49.296;14.470;2022-09-09T00:09:55;96777.04;;;20.76;38.69
47082;BME280;33066;49.296;14.470;2022-09-09T00:12:22;96779.77;;;20.26;38.55
47082;BME280;33066;49.296;14.470;2022-09-09T00:14:48;96780.41;;;20.18;38.82
47082;BME280;33066;49.296;14.470;2022-09-09T00:17:11;96780.04;;;20.50;38.71
47082;BME280;33066;49.296;14.470;2022-09-09T00:19:37;96776.89;;;20.57;38.66
47082;BME280;33066;49.296;14.470;2022-09-09T00:22:07;96776.59;;;20.49;38.43
47082;BME280;33066;49.296;14.470;2022-09-09T00:24:27;96778.55;;;20.35;38.59
47082;BME280;33066;49.296;14.470;2022-09-09T00:26:51;96777.39;;;20.51;38.74
47082;BME280;33066;49.296;14.470;2022-09-09T00:29:18;96778.60;;;20.19;38.88
47082;BME280;33066;49.296;14.470;2022-09-09T00:31:38;96776.51;;;20.60;39.07
47082;BME280;33066;49.296;14.470;2022-09-09T00:34:08;96775.23;;;20.10;39.34
47082;BME280;33066;49.296;14.470;2022-09-09T00:36:28;96777.17;;;20.37;38.88
47082;BME280;33066;49.296;14.470;2022-09-09T00:38:56;96774.71;;;20.10;38.60
47082;BME280;33066;49.296;14.470;2022-09-09T00:41:22;96769.65;;;20.37;38.57
47082;BME280;33066;49.296;14.470;2022-09-09T00:43:49;96771.14;;;20.42;38.57
47082;BME280;33066;49.296;14.470;2022-09-09T00:46:24;96773.93;;;20.42;38.58
47082;BME280;33066;49.296;14.470;2022-09-09T00:48:40;96777.05;;;20.13;38.69
47082;BME280;33066;49.296;14.470;2022-09-09T00:51:04;96775.68;;;20.06;38.37
47082;BME280;33066;49.296;14.470;2022-09-09T00:53:32;96774.09;;;20.00;38.30
47082;BME280;33066;49.296;14.470;2022-09-09T00:55:57;96770.24;;;20.16;38.45
47082;BME280;33066;49.296;14.470;2022-09-09T00:58:15;96770.24;;;20.16;38.45
47082;BME280;33066;49.296;14.470;2022-09-09T01:00:43;96767.90;;;20.15;38.47
47082;BME280;33066;49.296;14.470;2022-09-09T01:03:18;96768.88;;;19.87;38.61
47082;BME280;33066;49.296;14.470;2022-09-09T01:05:36;96767.35;;;19.88;38.67
47082;BME280;33066;49.296;14.470;2022-09-09T01:07:58;96762.78;;;20.19;38.61
47082;BME280;33066;49.296;14.470;2022-09-09T01:10:29;96761.77;;;20.00;38.46
47082;BME280;33066;49.296;14.470;2022-09-09T01:12:47;96759.14;;;20.13;38.56
47082;BME280;33066;49.296;14.470;2022-09-09T01:15:14;96760.79;;;19.88;38.53
47082;BME280;33066;49.296;14.470;2022-09-09T01:17:47;96762.99;;;19.88;38.48
47082;BME280;33066;49.296;14.470;2022-09-09T01:20:06;96764.35;;;19.85;38.52
47082;BME280;33066;49.296;14.470;2022-09-09T01:22:33;96763.44;;;20.03;38.53
47082;BME280;33066;49.296;14.470;2022-09-09T01:27:17;96767.40;;;19.92;38.43
47082;BME280;33066;49.296;14.470;2022-09-09T01:29:42;96768.07;;;19.72;38.88
47082;BME280;33066;49.296;14.470;2022-09-09T01:34:35;96761.61;;;19.42;39.12
47082;BME280;33066;49.296;14.470;2022-09-09T01:36:59;96763.17;;;19.81;39.29
47082;BME280;33066;49.296;14.470;2022-09-09T01:39:22;96759.58;;;19.83;39.28
47082;BME280;33066;49.296;14.470;2022-09-09T01:41:47;96756.74;;;19.84;39.26
47082;BME280;33066;49.296;14.470;2022-09-09T01:44:13;96754.26;;;19.56;39.25
47082;BME280;33066;49.296;14.470;2022-09-09T01:46:38;96756.63;;;19.82;39.30
47082;BME280;33066;49.296;14.470;2022-09-09T01:49:06;96760.52;;;19.85;39.31
47082;BME280;33066;49.296;14.470;2022-09-09T01:51:28;96760.14;;;19.86;39.42
47082;BME280;33066;49.296;14.470;2022-09-09T01:53:53;96760.86;;;19.61;39.54
47082;BME280;33066;49.296;14.470;2022-09-09T01:56:28;96759.07;;;19.94;39.54
47082;BME280;33066;49.296;14.470;2022-09-09T01:58:51;96757.84;;;19.96;39.44
47082;BME280;33066;49.296;14.470;2022-09-09T02:01:15;96761.00;;;19.90;39.36
47082;BME280;33066;49.296;14.470;2022-09-09T02:03:35;96763.33;;;19.62;39.43
47082;BME280;33066;49.296;14.470;2022-09-09T02:06:08;96767.10;;;19.86;39.35
47082;BME280;33066;49.296;14.470;2022-09-09T02:08:29;96768.56;;;19.89;39.45
47082;BME280;33066;49.296;14.470;2022-09-09T02:10:55;96771.84;;;19.93;39.29
47082;BME280;33066;49.296;14.470;2022-09-09T02:13:17;96776.80;;;19.46;39.19
47082;BME280;33066;49.296;14.470;2022-09-09T02:15:43;96777.02;;;19.92;39.13
47082;BME280;33066;49.296;14.470;2022-09-09T02:18:07;96777.43;;;19.46;39.24
47082;BME280;33066;49.296;14.470;2022-09-09T02:20:31;96782.00;;;19.72;39.10
47082;BME280;33066;49.296;14.470;2022-09-09T02:22:56;96785.07;;;19.68;39.15
47082;BME280;33066;49.296;14.470;2022-09-09T02:25:23;96788.06;;;19.88;39.23
47082;BME280;33066;49.296;14.470;2022-09-09T02:27:47;96787.21;;;19.61;39.27
47082;BME280;33066;49.296;14.470;2022-09-09T02:30:12;96788.45;;;19.86;39.54
47082;BME280;33066;49.296;14.470;2022-09-09T02:32:37;96788.79;;;19.61;39.41
47082;BME280;33066;49.296;14.470;2022-09-09T02:35:05;96792.76;;;19.84;39.47
47082;BME280;33066;49.296;14.470;2022-09-09T02:37:29;96790.88;;;19.57;39.35
47082;BME280;33066;49.296;14.470;2022-09-09T02:39:51;96788.65;;;19.55;39.27
47082;BME280;33066;49.296;14.470;2022-09-09T02:42:17;96789.98;;;19.76;39.29
47082;BME280;33066;49.296;14.470;2022-09-09T02:44:42;96789.45;;;19.81;39.50
47082;BME280;33066;49.296;14.470;2022-09-09T02:47:16;96788.01;;;19.59;39.37
47082;BME280;33066;49.296;14.470;2022-09-09T02:49:40;96788.68;;;19.82;39.39
47082;BME280;33066;49.296;14.470;2022-09-09T02:52:01;96784.86;;;19.55;39.48
47082;BME280;33066;49.296;14.470;2022-09-09T02:54:27;96780.49;;;19.81;39.62
47082;BME280;33066;49.296;14.470;2022-09-09T02:56:51;96777.79;;;19.54;39.81
47082;BME280;33066;49.296;14.470;2022-09-09T02:59:13;96775.21;;;19.78;39.93
47082;BME280;33066;49.296;14.470;2022-09-09T03:01:38;96774.16;;;19.79;40.21
47082;BME280;33066;49.296;14.470;2022-09-09T03:04:03;96773.80;;;19.87;40.08
47082;BME280;33066;49.296;14.470;2022-09-09T03:06:28;96768.79;;;19.91;40.27
47082;BME280;33066;49.296;14.470;2022-09-09T03:08:53;96765.92;;;19.76;40.08
47082;BME280;33066;49.296;14.470;2022-09-09T03:12:58;96765.58;;;19.97;39.79
47082;BME280;33066;49.296;14.470;2022-09-09T03:15:23;96768.24;;;19.48;40.48
47082;BME280;33066;49.296;14.470;2022-09-09T03:17:48;96773.28;;;19.52;40.96
47082;BME280;33066;49.296;14.470;2022-09-09T03:20:14;96771.66;;;19.26;41.39
47082;BME280;33066;49.296;14.470;2022-09-09T03:22:39;96773.76;;;19.04;41.39
47082;BME280;33066;49.296;14.470;2022-09-09T03:25:04;96772.80;;;19.16;41.42
47082;BME280;33066;49.296;14.470;2022-09-09T03:27:29;96775.09;;;18.90;41.38
47082;BME280;33066;49.296;14.470;2022-09-09T03:29:54;96768.80;;;18.81;41.39
47082;BME280;33066;49.296;14.470;2022-09-09T03:32:20;96768.87;;;18.90;41.47
47082;BME280;33066;49.296;14.470;2022-09-09T03:34:45;96769.15;;;18.87;41.41
47082;BME280;33066;49.296;14.470;2022-09-09T03:37:12;96770.14;;;18.90;41.61
47082;BME280;33066;49.296;14.470;2022-09-09T03:39:35;96775.53;;;18.42;41.44
47082;BME280;33066;49.296;14.470;2022-09-09T03:42:02;96773.47;;;19.14;41.53
47082;BME280;33066;49.296;14.470;2022-09-09T03:44:26;96775.39;;;18.95;41.80
47082;BME280;33066;49.296;14.470;2022-09-09T03:46:51;96784.26;;;18.96;41.63
47082;BME280;33066;49.296;14.470;2022-09-09T03:49:16;96784.65;;;18.95;41.63
47082;BME280;33066;49.296;14.470;2022-09-09T03:51:41;96786.69;;;18.80;41.93
47082;BME280;33066;49.296;14.470;2022-09-09T03:54:06;96784.06;;;18.70;42.13
47082;BME280;33066;49.296;14.470;2022-09-09T03:56:31;96786.91;;;18.87;42.10
47082;BME280;33066;49.296;14.470;2022-09-09T03:58:56;96790.28;;;18.73;42.11
47082;BME280;33066;49.296;14.470;2022-09-09T04:01:22;96793.28;;;18.76;42.06
47082;BME280;33066;49.296;14.470;2022-09-09T04:03:47;96793.28;;;18.74;42.17
47082;BME280;33066;49.296;14.470;2022-09-09T04:06:13;96793.98;;;18.75;42.11
47082;BME280;33066;49.296;14.470;2022-09-09T04:08:37;96794.51;;;18.68;42.20
47082;BME280;33066;49.296;14.470;2022-09-09T04:11:03;96796.02;;;18.92;42.48
47082;BME280;33066;49.296;14.470;2022-09-09T04:13:28;96793.03;;;18.94;42.52
47082;BME280;33066;49.296;14.470;2022-09-09T04:15:54;96786.49;;;18.76;42.53
47082;BME280;33066;49.296;14.470;2022-09-09T04:18:18;96783.26;;;18.82;42.52
47082;BME280;33066;49.296;14.470;2022-09-09T04:20:46;96780.16;;;19.12;42.39
47082;BME280;33066;49.296;14.470;2022-09-09T04:23:10;96775.48;;;18.72;42.64
47082;BME280;33066;49.296;14.470;2022-09-09T04:25:35;96776.42;;;18.76;42.44
47082;BME280;33066;49.296;14.470;2022-09-09T04:27:59;96775.66;;;18.99;42.53
47082;BME280;33066;49.296;14.470;2022-09-09T04:30:25;96777.54;;;18.77;42.39
47082;BME280;33066;49.296;14.470;2022-09-09T04:32:50;96775.48;;;19.06;42.34
47082;BME280;33066;49.296;14.470;2022-09-09T04:35:15;96773.68;;;18.78;42.12
47082;BME280;33066;49.296;14.470;2022-09-09T04:37:40;96775.93;;;18.72;42.15
47082;BME280;33066;49.296;14.470;2022-09-09T04:40:06;96776.17;;;18.89;42.30
47082;BME280;33066;49.296;14.470;2022-09-09T04:42:30;96778.15;;;19.13;42.29
47082;BME280;33066;49.296;14.470;2022-09-09T04:44:55;96776.24;;;18.85;42.20
47082;BME280;33066;49.296;14.470;2022-09-09T04:47:20;96778.37;;;18.56;42.34
47082;BME280;33066;49.296;14.470;2022-09-09T04:49:46;96779.68;;;18.58;42.61
47082;BME280;33066;49.296;14.470;2022-09-09T04:52:11;96781.51;;;18.90;42.62
47082;BME280;33066;49.296;14.470;2022-09-09T04:54:36;96776.27;;;18.94;42.39
47082;BME280;33066;49.296;14.470;2022-09-09T04:57:01;96774.44;;;18.96;42.40
47082;BME280;33066;49.296;14.470;2022-09-09T04:59:26;96776.45;;;18.88;42.63
47082;BME280;33066;49.296;14.470;2022-09-09T05:01:51;96773.10;;;19.12;42.53
47082;BME280;33066;49.296;14.470;2022-09-09T05:04:16;96772.93;;;18.91;42.66
47082;BME280;33066;49.296;14.470;2022-09-09T05:06:44;96766.83;;;19.00;42.55
47082;BME280;33066;49.296;14.470;2022-09-09T05:09:08;96765.58;;;18.81;42.60
47082;BME280;33066;49.296;14.470;2022-09-09T05:11:35;96764.79;;;18.81;42.30
47082;BME280;33066;49.296;14.470;2022-09-09T05:14:01;96767.97;;;19.30;42.30
47082;BME280;33066;49.296;14.470;2022-09-09T05:16:23;96769.27;;;19.20;41.70
47082;BME280;33066;49.296;14.470;2022-09-09T05:18:49;96772.56;;;19.47;41.71
47082;BME280;33066;49.296;14.470;2022-09-09T05:21:15;96773.59;;;19.06;41.73
47082;BME280;33066;49.296;14.470;2022-09-09T05:23:38;96772.07;;;18.94;42.00
47082;BME280;33066;49.296;14.470;2022-09-09T05:26:07;96774.86;;;19.04;42.18
47082;BME280;33066;49.296;14.470;2022-09-09T05:28:29;96775.70;;;19.37;42.31
47082;BME280;33066;49.296;14.470;2022-09-09T05:30:56;96780.53;;;19.20;42.29
47082;BME280;33066;49.296;14.470;2022-09-09T05:33:24;96782.59;;;18.96;42.19
47082;BME280;33066;49.296;14.470;2022-09-09T05:35:46;96783.60;;;19.21;42.26
47082;BME280;33066;49.296;14.470;2022-09-09T05:38:10;96783.05;;;19.08;42.17
47082;BME280;33066;49.296;14.470;2022-09-09T05:40:35;96784.05;;;19.05;42.19
47082;BME280;33066;49.296;14.470;2022-09-09T05:43:01;96785.15;;;19.00;42.41
47082;BME280;33066;49.296;14.470;2022-09-09T05:45:26;96784.75;;;19.38;42.31
47082;BME280;33066;49.296;14.470;2022-09-09T05:47:52;96782.70;;;19.45;42.52
47082;BME280;33066;49.296;14.470;2022-09-09T05:50:16;96778.03;;;19.53;42.46
47082;BME280;33066;49.296;14.470;2022-09-09T05:52:41;96776.99;;;19.65;42.46
47082;BME280;33066;49.296;14.470;2022-09-09T05:55:08;96776.73;;;19.72;42.34
47082;BME280;33066;49.296;14.470;2022-09-09T05:57:32;96772.74;;;19.52;42.43
47082;BME280;33066;49.296;14.470;2022-09-09T05:59:57;96778.02;;;19.90;42.32
47082;BME280;33066;49.296;14.470;2022-09-09T06:02:23;96783.27;;;19.69;42.13
47082;BME280;33066;49.296;14.470;2022-09-09T06:04:48;96793.07;;;19.71;41.94
47082;BME280;33066;49.296;14.470;2022-09-09T06:07:12;96793.60;;;19.97;41.86
47082;BME280;33066;49.296;14.470;2022-09-09T06:09:38;96784.96;;;19.98;42.08
47082;BME280;33066;49.296;14.470;2022-09-09T06:12:05;96784.16;;;19.99;42.01
47082;BME280;33066;49.296;14.470;2022-09-09T06:14:28;96791.27;;;19.51;42.63
47082;BME280;33066;49.296;14.470;2022-09-09T06:16:53;96796.78;;;19.77;42.16
47082;BME280;33066;49.296;14.470;2022-09-09T06:19:19;96790.41;;;19.79;41.93
47082;BME280;33066;49.296;14.470;2022-09-09T06:21:45;96791.95;;;19.58;41.94
47082;BME280;33066;49.296;14.470;2022-09-09T06:24:09;96791.92;;;19.81;42.13
47082;BME280;33066;49.296;14.470;2022-09-09T06:26:35;96791.45;;;19.85;42.39
47082;BME280;33066;49.296;14.470;2022-09-09T06:28:59;96794.75;;;19.89;42.43
47082;BME280;33066;49.296;14.470;2022-09-09T06:31:26;96795.31;;;19.88;42.48
47082;BME280;33066;49.296;14.470;2022-09-09T06:33:50;96794.07;;;19.92;42.60
47082;BME280;33066;49.296;14.470;2022-09-09T06:36:16;96795.61;;;20.03;42.68
47082;BME280;33066;49.296;14.470;2022-09-09T06:38:39;96793.83;;;19.81;42.64
47082;BME280;33066;49.296;14.470;2022-09-09T06:41:05;96794.42;;;19.82;42.68
47082;BME280;33066;49.296;14.470;2022-09-09T06:43:30;96801.60;;;20.38;42.76
47082;BME280;33066;49.296;14.470;2022-09-09T06:45:58;96812.37;;;20.13;42.80
47082;BME280;33066;49.296;14.470;2022-09-09T06:48:20;96814.78;;;20.46;42.43
47082;BME280;33066;49.296;14.470;2022-09-09T06:50:45;96810.63;;;20.29;42.53
47082;BME280;33066;49.296;14.470;2022-09-09T06:53:11;96808.30;;;20.29;42.77
47082;BME280;33066;49.296;14.470;2022-09-09T06:55:36;96803.84;;;20.19;42.93
47082;BME280;33066;49.296;14.470;2022-09-09T06:58:08;96802.94;;;20.18;43.01
47082;BME280;33066;49.296;14.470;2022-09-09T07:00:27;96805.78;;;20.26;43.10
47082;BME280;33066;49.296;14.470;2022-09-09T07:02:52;96803.19;;;20.45;43.01
47082;BME280;33066;49.296;14.470;2022-09-09T07:05:17;96795.03;;;20.69;42.94
47082;BME280;33066;49.296;14.470;2022-09-09T07:07:42;96791.40;;;20.91;42.75
47082;BME280;33066;49.296;14.470;2022-09-09T07:10:08;96790.84;;;20.90;42.46
47082;BME280;33066;49.296;14.470;2022-09-09T07:12:32;96787.16;;;21.24;42.48
47082;BME280;33066;49.296;14.470;2022-09-09T07:14:59;96785.88;;;21.09;42.38
47082;BME280;33066;49.296;14.470;2022-09-09T07:17:24;96782.27;;;21.11;42.39
47082;BME280;33066;49.296;14.470;2022-09-09T07:19:49;96776.58;;;21.35;42.28
47082;BME280;33066;49.296;14.470;2022-09-09T07:22:14;96779.25;;;21.43;42.18
47082;BME280;33066;49.296;14.470;2022-09-09T07:24:40;96777.52;;;20.96;42.33
47082;BME280;33066;49.296;14.470;2022-09-09T07:27:04;96781.08;;;21.22;42.42
47082;BME280;33066;49.296;14.470;2022-09-09T07:29:29;96782.95;;;21.01;42.59
47082;BME280;33066;49.296;14.470;2022-09-09T07:31:54;96787.14;;;20.98;42.56
47082;BME280;33066;49.296;14.470;2022-09-09T07:34:20;96791.51;;;21.21;42.52
47082;BME280;33066;49.296;14.470;2022-09-09T07:36:45;96792.57;;;21.61;42.49
47082;BME280;33066;49.296;14.470;2022-09-09T07:39:11;96793.64;;;21.41;42.27
47082;BME280;33066;49.296;14.470;2022-09-09T07:41:38;96795.41;;;21.37;42.08
47082;BME280;33066;49.296;14.470;2022-09-09T07:44:11;96799.49;;;21.58;42.23
47082;BME280;33066;49.296;14.470;2022-09-09T07:46:26;96801.54;;;21.80;41.69
47082;BME280;33066;49.296;14.470;2022-09-09T07:48:53;96804.88;;;21.86;41.87
47082;BME280;33066;49.296;14.470;2022-09-09T07:51:20;96809.23;;;21.96;41.74
47082;BME280;33066;49.296;14.470;2022-09-09T07:53:42;96812.81;;;21.94;41.86
47082;BME280;33066;49.296;14.470;2022-09-09T07:56:09;96818.13;;;21.87;41.74
47082;BME280;33066;49.296;14.470;2022-09-09T07:58:32;96818.59;;;21.78;41.71
47082;BME280;33066;49.296;14.470;2022-09-09T08:00:57;96823.48;;;21.81;41.65
47082;BME280;33066;49.296;14.470;2022-09-09T08:03:22;96825.44;;;21.85;41.81
47082;BME280;33066;49.296;14.470;2022-09-09T08:05:48;96821.25;;;21.74;42.22
47082;BME280;33066;49.296;14.470;2022-09-09T08:08:13;96823.12;;;21.70;42.31
47082;BME280;33066;49.296;14.470;2022-09-09T08:10:38;96827.96;;;22.08;42.21
47082;BME280;33066;49.296;14.470;2022-09-09T08:13:03;96824.88;;;21.91;42.00
47082;BME280;33066;49.296;14.470;2022-09-09T08:15:29;96825.70;;;21.62;42.03
47082;BME280;33066;49.296;14.470;2022-09-09T08:17:54;96826.10;;;21.91;42.04
47082;BME280;33066;49.296;14.470;2022-09-09T08:20:19;96823.58;;;22.20;42.31
47082;BME280;33066;49.296;14.470;2022-09-09T08:22:44;96824.20;;;22.28;42.41
47082;BME280;33066;49.296;14.470;2022-09-09T08:25:11;96822.50;;;21.91;42.26
47082;BME280;33066;49.296;14.470;2022-09-09T08:27:35;96823.19;;;22.29;42.11
47082;BME280;33066;49.296;14.470;2022-09-09T08:30:00;96827.21;;;22.42;41.64
47082;BME280;33066;49.296;14.470;2022-09-09T08:32:25;96834.95;;;22.28;41.50
47082;BME280;33066;49.296;14.470;2022-09-09T08:34:50;96836.56;;;22.38;41.39
47082;BME280;33066;49.296;14.470;2022-09-09T08:37:17;96839.50;;;22.40;41.38
47082;BME280;33066;49.296;14.470;2022-09-09T08:39:40;96835.93;;;22.73;41.17
47082;BME280;33066;49.296;14.470;2022-09-09T08:44:42;96833.41;;;22.48;41.18
47082;BME280;33066;49.296;14.470;2022-09-09T08:47:03;96833.99;;;22.63;41.00
47082;BME280;33066;49.296;14.470;2022-09-09T08:51:45;96836.15;;;22.89;40.73
47082;BME280;33066;49.296;14.470;2022-09-09T08:54:10;96835.86;;;23.00;40.66
47082;BME280;33066;49.296;14.470;2022-09-09T08:56:36;96833.46;;;23.07;40.59
47082;BME280;33066;49.296;14.470;2022-09-09T08:59:02;96832.05;;;23.13;40.47
47082;BME280;33066;49.296;14.470;2022-09-09T09:03:57;96820.75;;;23.04;40.78
47082;BME280;33066;49.296;14.470;2022-09-09T09:06:30;96825.54;;;23.03;40.91
47082;BME280;33066;49.296;14.470;2022-09-09T09:08:46;96825.79;;;23.36;40.92
47082;BME280;33066;49.296;14.470;2022-09-09T09:11:07;96823.08;;;23.16;40.65
47082;BME280;33066;49.296;14.470;2022-09-09T09:13:37;96818.54;;;23.20;40.85
47082;BME280;33066;49.296;14.470;2022-09-09T09:16:03;96820.31;;;23.28;40.82
47082;BME280;33066;49.296;14.470;2022-09-09T09:18:21;96812.95;;;23.34;40.75
47082;BME280;33066;49.296;14.470;2022-09-09T09:20:52;96814.92;;;22.53;40.31
47082;BME280;33066;49.296;14.470;2022-09-09T09:23:19;96819.83;;;23.84;39.91
47082;BME280;33066;49.296;14.470;2022-09-09T09:25:40;96820.21;;;23.89;40.06
47082;BME280;33066;49.296;14.470;2022-09-09T09:28:07;96820.57;;;23.83;40.22
47082;BME280;33066;49.296;14.470;2022-09-09T09:30:31;96818.30;;;23.82;39.99
47082;BME280;33066;49.296;14.470;2022-09-09T09:32:56;96814.39;;;23.83;40.17
47082;BME280;33066;49.296;14.470;2022-09-09T09:35:17;96813.53;;;23.73;40.08
47082;BME280;33066;49.296;14.470;2022-09-09T09:37:41;96815.15;;;23.59;40.10
47082;BME280;33066;49.296;14.470;2022-09-09T09:40:10;96817.62;;;23.87;40.14
47082;BME280;33066;49.296;14.470;2022-09-09T09:42:31;96819.26;;;23.68;40.11
47082;BME280;33066;49.296;14.470;2022-09-09T09:47:23;96822.35;;;23.82;40.25
47082;BME280;33066;49.296;14.470;2022-09-09T09:49:52;96825.03;;;23.89;40.30
47082;BME280;33066;49.296;14.470;2022-09-09T09:52:17;96823.49;;;24.18;40.47
47082;BME280;33066;49.296;14.470;2022-09-09T09:54:39;96818.07;;;24.04;40.60
47082;BME280;33066;49.296;14.470;2022-09-09T09:57:09;96809.19;;;24.22;40.49
47082;BME280;33066;49.296;14.470;2022-09-09T09:59:33;96797.70;;;24.38;40.41
47082;BME280;33066;49.296;14.470;2022-09-09T10:01:53;96794.56;;;24.35;40.18
47082;BME280;33066;49.296;14.470;2022-09-09T10:04:20;96795.99;;;24.94;39.98
47082;BME280;33066;49.296;14.470;2022-09-09T10:06:43;96797.08;;;24.54;39.49
47082;BME280;33066;49.296;14.470;2022-09-09T10:09:22;96792.28;;;24.82;39.78
47082;BME280;33066;49.296;14.470;2022-09-09T10:11:46;96791.88;;;25.03;39.60
47082;BME280;33066;49.296;14.470;2022-09-09T10:14:07;96791.28;;;25.01;39.78
47082;BME280;33066;49.296;14.470;2022-09-09T10:16:36;96792.76;;;24.77;39.90
47082;BME280;33066;49.296;14.470;2022-09-09T10:18:58;96796.02;;;24.50;39.63
47082;BME280;33066;49.296;14.470;2022-09-09T10:21:26;96799.20;;;24.72;39.90
47082;BME280;33066;49.296;14.470;2022-09-09T10:23:52;96794.93;;;24.62;39.85
47082;BME280;33066;49.296;14.470;2022-09-09T10:26:15;96793.16;;;24.74;40.00
47082;BME280;33066;49.296;14.470;2022-09-09T10:28:46;96789.77;;;24.95;39.47
47082;BME280;33066;49.296;14.470;2022-09-09T10:31:06;96787.81;;;24.76;39.37
47082;BME280;33066;49.296;14.470;2022-09-09T10:33:28;96786.63;;;24.83;39.23
47082;BME280;33066;49.296;14.470;2022-09-09T10:35:56;96783.18;;;24.85;39.60
47082;BME280;33066;49.296;14.470;2022-09-09T10:38:17;96780.63;;;25.06;39.55
47082;BME280;33066;49.296;14.470;2022-09-09T10:40:46;96778.61;;;25.10;39.39
47082;BME280;33066;49.296;14.470;2022-09-09T10:43:17;96778.77;;;24.89;39.35
47082;BME280;33066;49.296;14.470;2022-09-09T10:45:39;96780.67;;;25.11;39.51
47082;BME280;33066;49.296;14.470;2022-09-09T10:48:12;96778.96;;;24.79;39.47
47082;BME280;33066;49.296;14.470;2022-09-09T10:52:56;96779.45;;;24.90;38.70
47082;BME280;33066;49.296;14.470;2022-09-09T10:55:18;96778.22;;;24.98;38.45
47082;BME280;33066;49.296;14.470;2022-09-09T10:57:44;96780.55;;;25.22;38.56
47082;BME280;33066;49.296;14.470;2022-09-09T11:00:15;96779.71;;;24.91;38.04
47082;BME280;33066;49.296;14.470;2022-09-09T11:02:33;96776.60;;;25.16;37.58
47082;BME280;33066;49.296;14.470;2022-09-09T11:05:03;96775.79;;;25.18;37.32
47082;BME280;33066;49.296;14.470;2022-09-09T11:07:31;96782.25;;;25.08;36.88
47082;BME280;33066;49.296;14.470;2022-09-09T11:09:54;96787.34;;;25.03;36.71
47082;BME280;33066;49.296;14.470;2022-09-09T11:12:19;96788.82;;;24.95;37.29
47082;BME280;33066;49.296;14.470;2022-09-09T11:14:44;96793.22;;;25.20;37.43
47082;BME280;33066;49.296;14.470;2022-09-09T11:17:12;96797.34;;;25.04;37.35
47082;BME280;33066;49.296;14.470;2022-09-09T11:19:35;96797.92;;;24.74;37.94
47082;BME280;33066;49.296;14.470;2022-09-09T11:22:01;96794.64;;;24.92;38.34
47082;BME280;33066;49.296;14.470;2022-09-09T11:24:29;96790.45;;;24.62;38.34
47082;BME280;33066;49.296;14.470;2022-09-09T11:26:54;96787.63;;;24.65;38.60
47082;BME280;33066;49.296;14.470;2022-09-09T11:31:48;96780.53;;;24.87;39.01
47082;BME280;33066;49.296;14.470;2022-09-09T11:34:27;96780.71;;;24.57;39.05
47082;BME280;33066;49.296;14.470;2022-09-09T11:36:58;96776.47;;;24.66;39.33
47082;BME280;33066;49.296;14.470;2022-09-09T11:39:07;96778.35;;;24.61;38.35
47082;BME280;33066;49.296;14.470;2022-09-09T11:41:33;96776.10;;;24.53;38.15
47082;BME280;33066;49.296;14.470;2022-09-09T11:43:52;96780.15;;;24.71;37.58
47082;BME280;33066;49.296;14.470;2022-09-09T11:46:22;96781.99;;;24.37;37.09
47082;BME280;33066;49.296;14.470;2022-09-09T11:48:43;96784.13;;;24.46;37.20
47082;BME280;33066;49.296;14.470;2022-09-09T11:51:10;96785.47;;;24.21;37.44
47082;BME280;33066;49.296;14.470;2022-09-09T11:53:34;96780.22;;;24.53;37.61
47082;BME280;33066;49.296;14.470;2022-09-09T11:56:08;96775.95;;;24.60;37.85
47082;BME280;33066;49.296;14.470;2022-09-09T11:58:24;96777.74;;;24.49;37.73
47082;BME280;33066;49.296;14.470;2022-09-09T12:00:50;96778.22;;;24.46;38.03
47082;BME280;33066;49.296;14.470;2022-09-09T12:05:44;96782.86;;;24.73;38.20
47082;BME280;33066;49.296;14.470;2022-09-09T12:08:16;96782.59;;;24.82;38.18
47082;BME280;33066;49.296;14.470;2022-09-09T12:10:39;96779.95;;;24.41;38.01
47082;BME280;33066;49.296;14.470;2022-09-09T12:13:09;96785.14;;;24.45;38.15
47082;BME280;33066;49.296;14.470;2022-09-09T12:15:28;96782.06;;;24.67;38.11
47082;BME280;33066;49.296;14.470;2022-09-09T12:17:53;96779.65;;;24.68;38.10
47082;BME280;33066;49.296;14.470;2022-09-09T12:20:19;96778.51;;;24.66;38.35
47082;BME280;33066;49.296;14.470;2022-09-09T12:22:54;96779.22;;;24.84;38.52
47082;BME280;33066;49.296;14.470;2022-09-09T12:25:16;96782.10;;;24.56;38.67
47082;BME280;33066;49.296;14.470;2022-09-09T12:27:40;96782.73;;;24.44;38.61
47082;BME280;33066;49.296;14.470;2022-09-09T12:30:02;96781.33;;;24.17;38.65
47082;BME280;33066;49.296;14.470;2022-09-09T12:32:26;96779.15;;;24.05;38.45
47082;BME280;33066;49.296;14.470;2022-09-09T12:34:54;96772.40;;;24.12;38.76
47082;BME280;33066;49.296;14.470;2022-09-09T12:37:27;96765.67;;;24.38;39.00
47082;BME280;33066;49.296;14.470;2022-09-09T12:39:49;96764.66;;;24.35;39.02
47082;BME280;33066;49.296;14.470;2022-09-09T12:42:16;96761.13;;;24.51;38.87
47082;BME280;33066;49.296;14.470;2022-09-09T12:44:35;96760.24;;;24.48;39.29
47082;BME280;33066;49.296;14.470;2022-09-09T12:47:03;96758.01;;;24.54;39.27
47082;BME280;33066;49.296;14.470;2022-09-09T12:49:30;96758.02;;;24.53;38.87
47082;BME280;33066;49.296;14.470;2022-09-09T12:51:52;96760.14;;;24.35;39.01
47082;BME280;33066;49.296;14.470;2022-09-09T12:54:19;96763.77;;;24.82;39.05
47082;BME280;33066;49.296;14.470;2022-09-09T12:56:46;96767.05;;;24.31;39.07
47082;BME280;33066;49.296;14.470;2022-09-09T13:01:37;96769.79;;;24.35;39.17
47082;BME280;33066;49.296;14.470;2022-09-09T13:04:02;96767.24;;;24.27;38.97